sensor_id;sensor_type;location;lat;lon;timestamp;temperature;humidity
32612;DHT22;19030;49.478;8.986;2023-09-19T00:01:55;15.80;99.90
32612;DHT22;19030;49.478;8.986;2023-09-19T00:03:57;15.90;99.90
32612;DHT22;19030;49.478;8.986;2023-09-19T00:05:59;15.90;99.90
32612;DHT22;19030;49.478;8.986;2023-09-19T00:08:00;15.90;99.90
32612;DHT22;19030;49.478;8.986;2023-09-19T00:10:01;15.90;99.90
32612;DHT22;19030;49.478;8.986;2023-09-19T00:12:06;15.90;99.90
32612;DHT22;19030;49.478;8.986;2023-09-19T00:14:07;16.00;99.90
32612;DHT22;19030;49.478;8.986;2023-09-19T00:16:10;16.00;99.90
32612;DHT22;19030;49.478;8.986;2023-09-19T00:18:11;16.00;99.90
32612;DHT22;19030;49.478;8.986;2023-09-19T00:20:11;16.00;99.90
32612;DHT22;19030;49.478;8.986;2023-09-19T00:22:13;16.00;99.90
32612;DHT22;19030;49.478;8.986;2023-09-19T00:24:16;16.00;99.90
32612;DHT22;19030;49.478;8.986;2023-09-19T00:26:17;16.00;99.90
32612;DHT22;19030;49.478;8.986;2023-09-19T00:28:22;16.00;99.90
32612;DHT22;19030;49.478;8.986;2023-09-19T00:30:22;16.10;99.90
32612;DHT22;19030;49.478;8.986;2023-09-19T00:32:24;16.10;99.90
32612;DHT22;19030;49.478;8.986;2023-09-19T00:34:25;16.10;99.90
32612;DHT22;19030;49.478;8.986;2023-09-19T00:36:25;16.10;99.90
32612;DHT22;19030;49.478;8.986;2023-09-19T00:38:26;16.10;99.90
32612;DHT22;19030;49.478;8.986;2023-09-19T00:40:30;16.20;99.90
32612;DHT22;19030;49.478;8.986;2023-09-19T00:42:31;16.20;99.90
32612;DHT22;19030;49.478;8.986;2023-09-19T00:44:32;16.20;99.90
32612;DHT22;19030;49.478;8.986;2023-09-19T00:46:34;16.20;99.90
32612;DHT22;19030;49.478;8.986;2023-09-19T00:48:40;16.20;99.90
32612;DHT22;19030;49.478;8.986;2023-09-19T00:50:44;16.20;99.90
32612;DHT22;19030;49.478;8.986;2023-09-19T00:52:47;16.20;99.90
32612;DHT22;19030;49.478;8.986;2023-09-19T00:54:48;16.20;99.90
32612;DHT22;19030;49.478;8.986;2023-09-19T00:56:49;16.20;99.90
32612;DHT22;19030;49.478;8.986;2023-09-19T00:58:51;16.20;99.90
32612;DHT22;19030;49.478;8.986;2023-09-19T01:00:52;16.10;99.90
32612;DHT22;19030;49.478;8.986;2023-09-19T01:02:54;16.20;99.90
32612;DHT22;19030;49.478;8.986;2023-09-19T01:04:55;16.20;99.90
32612;DHT22;19030;49.478;8.986;2023-09-19T01:06:55;16.20;99.90
32612;DHT22;19030;49.478;8.986;2023-09-19T01:08:56;16.20;99.90
32612;DHT22;19030;49.478;8.986;2023-09-19T01:13:35;16.20;99.90
32612;DHT22;19030;49.478;8.986;2023-09-19T01:16:15;16.20;99.90
32612;DHT22;19030;49.478;8.986;2023-09-19T01:18:52;16.20;99.90
32612;DHT22;19030;49.478;8.986;2023-09-19T01:21:26;16.20;99.90
32612;DHT22;19030;49.478;8.986;2023-09-19T01:23:52;16.30;99.90
32612;DHT22;19030;49.478;8.986;2023-09-19T01:31:22;16.30;99.90
32612;DHT22;19030;49.478;8.986;2023-09-19T01:33:24;16.40;99.90
32612;DHT22;19030;49.478;8.986;2023-09-19T01:35:26;16.50;99.90
32612;DHT22;19030;49.478;8.986;2023-09-19T01:37:26;16.50;99.90
32612;DHT22;19030;49.478;8.986;2023-09-19T01:39:27;16.50;99.90
32612;DHT22;19030;49.478;8.986;2023-09-19T01:41:38;16.50;99.90
32612;DHT22;19030;49.478;8.986;2023-09-19T01:43:43;16.60;99.90
32612;DHT22;19030;49.478;8.986;2023-09-19T01:47:52;16.60;99.90
32612;DHT22;19030;49.478;8.986;2023-09-19T01:52:11;16.70;99.90
32612;DHT22;19030;49.478;8.986;2023-09-19T01:54:26;16.70;99.90
32612;DHT22;19030;49.478;8.986;2023-09-19T01:56:52;16.70;99.90
32612;DHT22;19030;49.478;8.986;2023-09-19T01:58:56;16.70;99.90
32612;DHT22;19030;49.478;8.986;2023-09-19T02:01:00;16.70;99.90
32612;DHT22;19030;49.478;8.986;2023-09-19T02:03:02;16.70;99.90
32612;DHT22;19030;49.478;8.986;2023-09-19T02:05:06;16.70;99.90
32612;DHT22;19030;49.478;8.986;2023-09-19T02:07:08;16.70;99.90
32612;DHT22;19030;49.478;8.986;2023-09-19T02:09:08;16.70;99.90
32612;DHT22;19030;49.478;8.986;2023-09-19T02:11:09;16.70;99.90
32612;DHT22;19030;49.478;8.986;2023-09-19T02:13:10;16.70;99.90
32612;DHT22;19030;49.478;8.986;2023-09-19T02:15:11;16.70;99.90
32612;DHT22;19030;49.478;8.986;2023-09-19T02:17:11;16.70;99.90
32612;DHT22;19030;49.478;8.986;2023-09-19T02:19:13;16.70;99.90
32612;DHT22;19030;49.478;8.986;2023-09-19T02:21:13;16.70;99.90
32612;DHT22;19030;49.478;8.986;2023-09-19T02:23:15;16.80;99.90
32612;DHT22;19030;49.478;8.986;2023-09-19T02:25:16;16.70;99.90
32612;DHT22;19030;49.478;8.986;2023-09-19T02:27:16;16.80;99.90
32612;DHT22;19030;49.478;8.986;2023-09-19T02:29:18;16.80;99.90
32612;DHT22;19030;49.478;8.986;2023-09-19T02:31:18;16.80;99.90
32612;DHT22;19030;49.478;8.986;2023-09-19T02:33:20;16.80;99.90
32612;DHT22;19030;49.478;8.986;2023-09-19T02:35:20;16.80;99.90
32612;DHT22;19030;49.478;8.986;2023-09-19T02:37:21;16.80;99.90
32612;DHT22;19030;49.478;8.986;2023-09-19T02:39:22;16.80;99.90
32612;DHT22;19030;49.478;8.986;2023-09-19T02:41:24;16.80;99.90
32612;DHT22;19030;49.478;8.986;2023-09-19T02:43:24;16.80;99.90
32612;DHT22;19030;49.478;8.986;2023-09-19T02:45:25;16.80;99.90
32612;DHT22;19030;49.478;8.986;2023-09-19T02:47:26;16.80;99.90
32612;DHT22;19030;49.478;8.986;2023-09-19T02:49:27;16.80;99.90
32612;DHT22;19030;49.478;8.986;2023-09-19T02:51:28;16.80;99.90
32612;DHT22;19030;49.478;8.986;2023-09-19T02:53:28;16.80;99.90
32612;DHT22;19030;49.478;8.986;2023-09-19T02:55:31;16.80;99.90
32612;DHT22;19030;49.478;8.986;2023-09-19T02:57:32;16.80;99.90
32612;DHT22;19030;49.478;8.986;2023-09-19T02:59:33;16.80;99.90
32612;DHT22;19030;49.478;8.986;2023-09-19T03:01:37;16.80;99.90
32612;DHT22;19030;49.478;8.986;2023-09-19T03:03:38;16.80;99.90
32612;DHT22;19030;49.478;8.986;2023-09-19T03:05:40;16.80;99.90
32612;DHT22;19030;49.478;8.986;2023-09-19T03:07:40;16.90;99.90
32612;DHT22;19030;49.478;8.986;2023-09-19T03:09:43;16.80;99.90
32612;DHT22;19030;49.478;8.986;2023-09-19T03:11:45;16.80;99.90
32612;DHT22;19030;49.478;8.986;2023-09-19T03:13:51;16.90;99.90
32612;DHT22;19030;49.478;8.986;2023-09-19T03:15:54;16.80;99.90
32612;DHT22;19030;49.478;8.986;2023-09-19T03:17:59;16.80;99.90
32612;DHT22;19030;49.478;8.986;2023-09-19T03:20:00;16.80;99.90
32612;DHT22;19030;49.478;8.986;2023-09-19T03:22:00;16.70;99.90
32612;DHT22;19030;49.478;8.986;2023-09-19T03:24:04;16.70;99.90
32612;DHT22;19030;49.478;8.986;2023-09-19T03:26:04;16.70;99.90
32612;DHT22;19030;49.478;8.986;2023-09-19T03:28:06;16.60;99.90
32612;DHT22;19030;49.478;8.986;2023-09-19T03:30:08;16.60;99.90
32612;DHT22;19030;49.478;8.986;2023-09-19T03:32:09;16.60;99.90
32612;DHT22;19030;49.478;8.986;2023-09-19T03:34:11;16.50;99.90
32612;DHT22;19030;49.478;8.986;2023-09-19T03:36:12;16.50;99.90
32612;DHT22;19030;49.478;8.986;2023-09-19T03:38:14;16.50;99.90
32612;DHT22;19030;49.478;8.986;2023-09-19T03:40:14;16.50;99.90
32612;DHT22;19030;49.478;8.986;2023-09-19T03:42:16;16.40;99.90
32612;DHT22;19030;49.478;8.986;2023-09-19T03:44:17;16.50;99.90
32612;DHT22;19030;49.478;8.986;2023-09-19T03:46:17;16.40;99.90
32612;DHT22;19030;49.478;8.986;2023-09-19T03:48:18;16.40;99.90
32612;DHT22;19030;49.478;8.986;2023-09-19T03:50:20;16.30;99.90
32612;DHT22;19030;49.478;8.986;2023-09-19T03:52:20;16.30;99.90
32612;DHT22;19030;49.478;8.986;2023-09-19T03:54:21;16.20;99.90
32612;DHT22;19030;49.478;8.986;2023-09-19T03:56:22;16.10;99.90
32612;DHT22;19030;49.478;8.986;2023-09-19T03:58:22;16.10;99.90
32612;DHT22;19030;49.478;8.986;2023-09-19T04:00:23;16.00;99.90
32612;DHT22;19030;49.478;8.986;2023-09-19T04:02:26;15.90;99.90
32612;DHT22;19030;49.478;8.986;2023-09-19T04:04:33;15.80;99.90
32612;DHT22;19030;49.478;8.986;2023-09-19T04:06:34;15.80;99.90
32612;DHT22;19030;49.478;8.986;2023-09-19T04:08:37;15.70;99.90
32612;DHT22;19030;49.478;8.986;2023-09-19T04:10:38;15.60;99.90
32612;DHT22;19030;49.478;8.986;2023-09-19T04:12:39;15.50;99.90
32612;DHT22;19030;49.478;8.986;2023-09-19T04:14:39;15.50;99.90
32612;DHT22;19030;49.478;8.986;2023-09-19T04:16:40;15.40;99.90
32612;DHT22;19030;49.478;8.986;2023-09-19T04:18:41;15.30;99.90
32612;DHT22;19030;49.478;8.986;2023-09-19T04:20:50;15.30;99.90
32612;DHT22;19030;49.478;8.986;2023-09-19T04:22:51;15.20;99.90
32612;DHT22;19030;49.478;8.986;2023-09-19T04:24:52;15.20;99.90
32612;DHT22;19030;49.478;8.986;2023-09-19T04:26:52;15.10;99.90
32612;DHT22;19030;49.478;8.986;2023-09-19T04:28:53;15.10;99.90
32612;DHT22;19030;49.478;8.986;2023-09-19T04:30:54;15.10;99.90
32612;DHT22;19030;49.478;8.986;2023-09-19T04:32:55;15.00;99.90
32612;DHT22;19030;49.478;8.986;2023-09-19T04:34:56;15.00;99.90
32612;DHT22;19030;49.478;8.986;2023-09-19T04:37:00;15.00;99.90
32612;DHT22;19030;49.478;8.986;2023-09-19T04:39:03;14.90;99.90
32612;DHT22;19030;49.478;8.986;2023-09-19T04:41:07;14.90;99.90
32612;DHT22;19030;49.478;8.986;2023-09-19T04:43:08;14.80;99.90
32612;DHT22;19030;49.478;8.986;2023-09-19T04:45:09;14.80;99.90
32612;DHT22;19030;49.478;8.986;2023-09-19T04:47:10;14.80;99.90
32612;DHT22;19030;49.478;8.986;2023-09-19T04:49:12;14.70;99.90
32612;DHT22;19030;49.478;8.986;2023-09-19T04:51:13;14.70;99.90
32612;DHT22;19030;49.478;8.986;2023-09-19T04:53:15;14.70;99.90
32612;DHT22;19030;49.478;8.986;2023-09-19T04:55:17;14.60;99.90
32612;DHT22;19030;49.478;8.986;2023-09-19T04:57:18;14.60;99.90
32612;DHT22;19030;49.478;8.986;2023-09-19T04:59:18;14.60;99.90
32612;DHT22;19030;49.478;8.986;2023-09-19T05:01:19;14.60;99.90
32612;DHT22;19030;49.478;8.986;2023-09-19T05:03:23;14.50;99.90
32612;DHT22;19030;49.478;8.986;2023-09-19T05:05:24;14.50;99.90
32612;DHT22;19030;49.478;8.986;2023-09-19T05:07:26;14.50;99.90
32612;DHT22;19030;49.478;8.986;2023-09-19T05:09:26;14.50;99.90
32612;DHT22;19030;49.478;8.986;2023-09-19T05:11:27;14.50;99.90
32612;DHT22;19030;49.478;8.986;2023-09-19T05:13:30;14.50;99.90
32612;DHT22;19030;49.478;8.986;2023-09-19T05:15:31;14.50;99.90
32612;DHT22;19030;49.478;8.986;2023-09-19T05:17:31;14.40;99.90
32612;DHT22;19030;49.478;8.986;2023-09-19T05:19:33;14.50;99.90
32612;DHT22;19030;49.478;8.986;2023-09-19T05:21:34;14.50;99.90
32612;DHT22;19030;49.478;8.986;2023-09-19T05:23:35;14.50;99.90
32612;DHT22;19030;49.478;8.986;2023-09-19T05:25:36;14.50;99.90
32612;DHT22;19030;49.478;8.986;2023-09-19T05:27:39;14.50;99.90
32612;DHT22;19030;49.478;8.986;2023-09-19T05:29:40;14.60;99.90
32612;DHT22;19030;49.478;8.986;2023-09-19T05:31:42;14.60;99.90
32612;DHT22;19030;49.478;8.986;2023-09-19T05:33:43;14.70;99.90
32612;DHT22;19030;49.478;8.986;2023-09-19T05:35:44;14.80;99.90
32612;DHT22;19030;49.478;8.986;2023-09-19T05:37:46;14.80;99.90
32612;DHT22;19030;49.478;8.986;2023-09-19T05:39:47;14.90;99.90
32612;DHT22;19030;49.478;8.986;2023-09-19T05:41:47;14.90;99.90
32612;DHT22;19030;49.478;8.986;2023-09-19T05:43:49;15.00;99.90
32612;DHT22;19030;49.478;8.986;2023-09-19T05:45:50;15.00;99.90
32612;DHT22;19030;49.478;8.986;2023-09-19T05:47:52;15.10;99.90
32612;DHT22;19030;49.478;8.986;2023-09-19T05:49:56;15.10;99.90
32612;DHT22;19030;49.478;8.986;2023-09-19T05:51:56;15.20;99.90
32612;DHT22;19030;49.478;8.986;2023-09-19T05:53:59;15.30;99.90
32612;DHT22;19030;49.478;8.986;2023-09-19T05:55:59;15.40;99.90
32612;DHT22;19030;49.478;8.986;2023-09-19T05:58:01;15.50;99.90
32612;DHT22;19030;49.478;8.986;2023-09-19T06:00:05;15.60;99.90
32612;DHT22;19030;49.478;8.986;2023-09-19T06:02:12;15.70;99.90
32612;DHT22;19030;49.478;8.986;2023-09-19T06:04:13;15.80;99.90
32612;DHT22;19030;49.478;8.986;2023-09-19T06:06:14;15.90;99.90
32612;DHT22;19030;49.478;8.986;2023-09-19T06:10:15;16.40;99.90
32612;DHT22;19030;49.478;8.986;2023-09-19T06:12:15;16.70;99.90
32612;DHT22;19030;49.478;8.986;2023-09-19T06:14:17;16.80;99.90
32612;DHT22;19030;49.478;8.986;2023-09-19T06:16:18;17.00;99.90
32612;DHT22;19030;49.478;8.986;2023-09-19T06:18:20;17.00;99.90
32612;DHT22;19030;49.478;8.986;2023-09-19T06:20:21;17.00;99.90
32612;DHT22;19030;49.478;8.986;2023-09-19T06:22:23;17.00;99.90
32612;DHT22;19030;49.478;8.986;2023-09-19T06:24:24;16.90;99.90
32612;DHT22;19030;49.478;8.986;2023-09-19T06:26:25;16.90;99.90
32612;DHT22;19030;49.478;8.986;2023-09-19T06:28:27;16.90;99.90
32612;DHT22;19030;49.478;8.986;2023-09-19T06:30:28;17.00;99.90
32612;DHT22;19030;49.478;8.986;2023-09-19T06:32:29;17.10;99.90
32612;DHT22;19030;49.478;8.986;2023-09-19T06:34:30;17.20;99.90
32612;DHT22;19030;49.478;8.986;2023-09-19T06:36:30;17.20;99.90
32612;DHT22;19030;49.478;8.986;2023-09-19T06:38:31;17.30;99.90
32612;DHT22;19030;49.478;8.986;2023-09-19T06:40:34;17.40;99.90
32612;DHT22;19030;49.478;8.986;2023-09-19T06:42:35;17.50;99.90
32612;DHT22;19030;49.478;8.986;2023-09-19T06:44:37;17.60;99.90
32612;DHT22;19030;49.478;8.986;2023-09-19T06:46:37;17.70;99.90
32612;DHT22;19030;49.478;8.986;2023-09-19T06:48:41;17.80;99.90
32612;DHT22;19030;49.478;8.986;2023-09-19T06:50:44;18.00;99.90
32612;DHT22;19030;49.478;8.986;2023-09-19T06:52:47;18.10;99.90
32612;DHT22;19030;49.478;8.986;2023-09-19T06:54:50;18.20;99.90
32612;DHT22;19030;49.478;8.986;2023-09-19T06:56:52;18.40;99.90
32612;DHT22;19030;49.478;8.986;2023-09-19T06:58:53;18.40;99.90
32612;DHT22;19030;49.478;8.986;2023-09-19T07:00:53;18.50;99.90
32612;DHT22;19030;49.478;8.986;2023-09-19T07:04:55;18.60;99.90
32612;DHT22;19030;49.478;8.986;2023-09-19T07:06:56;18.60;99.90
32612;DHT22;19030;49.478;8.986;2023-09-19T07:08:56;18.50;99.90
32612;DHT22;19030;49.478;8.986;2023-09-19T07:10:57;18.40;99.90
32612;DHT22;19030;49.478;8.986;2023-09-19T07:14:59;18.30;99.90
32612;DHT22;19030;49.478;8.986;2023-09-19T07:17:00;18.20;99.90
32612;DHT22;19030;49.478;8.986;2023-09-19T07:19:00;18.30;99.90
32612;DHT22;19030;49.478;8.986;2023-09-19T07:21:02;18.30;99.90
32612;DHT22;19030;49.478;8.986;2023-09-19T07:23:05;18.40;99.90
32612;DHT22;19030;49.478;8.986;2023-09-19T07:25:06;18.30;99.90
32612;DHT22;19030;49.478;8.986;2023-09-19T07:27:07;18.30;99.90
32612;DHT22;19030;49.478;8.986;2023-09-19T07:29:09;18.20;99.90
32612;DHT22;19030;49.478;8.986;2023-09-19T07:31:10;18.10;99.90
32612;DHT22;19030;49.478;8.986;2023-09-19T07:33:10;18.10;99.90
32612;DHT22;19030;49.478;8.986;2023-09-19T07:35:11;18.10;99.90
32612;DHT22;19030;49.478;8.986;2023-09-19T07:37:12;18.20;99.90
32612;DHT22;19030;49.478;8.986;2023-09-19T07:39:15;18.20;99.90
32612;DHT22;19030;49.478;8.986;2023-09-19T07:41:15;18.30;99.90
32612;DHT22;19030;49.478;8.986;2023-09-19T07:43:16;18.30;99.90
32612;DHT22;19030;49.478;8.986;2023-09-19T07:45:18;18.30;99.90
32612;DHT22;19030;49.478;8.986;2023-09-19T07:47:19;18.30;99.90
32612;DHT22;19030;49.478;8.986;2023-09-19T07:49:21;18.60;99.90
32612;DHT22;19030;49.478;8.986;2023-09-19T07:51:21;18.70;99.90
32612;DHT22;19030;49.478;8.986;2023-09-19T07:53:22;18.80;99.90
32612;DHT22;19030;49.478;8.986;2023-09-19T07:55:23;18.80;99.90
32612;DHT22;19030;49.478;8.986;2023-09-19T07:57:25;18.90;99.90
32612;DHT22;19030;49.478;8.986;2023-09-19T07:59:26;19.00;99.90
32612;DHT22;19030;49.478;8.986;2023-09-19T08:01:27;19.10;99.90
32612;DHT22;19030;49.478;8.986;2023-09-19T08:03:28;19.20;99.90
32612;DHT22;19030;49.478;8.986;2023-09-19T08:05:28;19.20;99.90
32612;DHT22;19030;49.478;8.986;2023-09-19T08:07:29;19.40;99.90
32612;DHT22;19030;49.478;8.986;2023-09-19T08:09:29;19.60;99.90
32612;DHT22;19030;49.478;8.986;2023-09-19T08:11:33;19.80;99.90
32612;DHT22;19030;49.478;8.986;2023-09-19T08:13:34;19.90;99.90
32612;DHT22;19030;49.478;8.986;2023-09-19T08:15:34;20.10;99.90
32612;DHT22;19030;49.478;8.986;2023-09-19T08:17:35;20.10;99.90
32612;DHT22;19030;49.478;8.986;2023-09-19T08:19:36;20.20;99.90
32612;DHT22;19030;49.478;8.986;2023-09-19T08:21:36;20.20;99.90
32612;DHT22;19030;49.478;8.986;2023-09-19T08:23:37;20.30;99.90
32612;DHT22;19030;49.478;8.986;2023-09-19T08:25:41;20.20;99.90
32612;DHT22;19030;49.478;8.986;2023-09-19T08:27:41;20.20;99.90
32612;DHT22;19030;49.478;8.986;2023-09-19T08:29:44;20.20;99.90
32612;DHT22;19030;49.478;8.986;2023-09-19T08:31:44;20.20;99.90
32612;DHT22;19030;49.478;8.986;2023-09-19T08:33:45;20.40;99.90
32612;DHT22;19030;49.478;8.986;2023-09-19T08:35:49;20.50;99.90
32612;DHT22;19030;49.478;8.986;2023-09-19T08:37:50;20.30;99.90
32612;DHT22;19030;49.478;8.986;2023-09-19T08:39:51;20.30;99.90
32612;DHT22;19030;49.478;8.986;2023-09-19T08:41:58;20.10;99.90
32612;DHT22;19030;49.478;8.986;2023-09-19T08:44:00;20.10;99.90
32612;DHT22;19030;49.478;8.986;2023-09-19T08:46:16;20.00;99.90
32612;DHT22;19030;49.478;8.986;2023-09-19T08:48:29;19.90;99.90
32612;DHT22;19030;49.478;8.986;2023-09-19T08:50:31;19.70;99.90
32612;DHT22;19030;49.478;8.986;2023-09-19T08:52:41;19.60;99.90
32612;DHT22;19030;49.478;8.986;2023-09-19T08:54:43;19.50;99.90
32612;DHT22;19030;49.478;8.986;2023-09-19T08:56:45;19.70;99.90
32612;DHT22;19030;49.478;8.986;2023-09-19T08:58:52;19.70;99.90
32612;DHT22;19030;49.478;8.986;2023-09-19T09:00:54;19.60;99.90
32612;DHT22;19030;49.478;8.986;2023-09-19T09:02:58;19.50;99.90
32612;DHT22;19030;49.478;8.986;2023-09-19T09:04:59;19.40;99.90
32612;DHT22;19030;49.478;8.986;2023-09-19T09:07:00;19.30;99.90
32612;DHT22;19030;49.478;8.986;2023-09-19T09:09:04;19.30;99.90
32612;DHT22;19030;49.478;8.986;2023-09-19T09:11:06;19.40;99.90
32612;DHT22;19030;49.478;8.986;2023-09-19T09:13:09;19.40;99.90
32612;DHT22;19030;49.478;8.986;2023-09-19T09:15:11;19.60;99.90
32612;DHT22;19030;49.478;8.986;2023-09-19T09:17:17;19.80;99.90
32612;DHT22;19030;49.478;8.986;2023-09-19T09:19:20;20.10;99.90
32612;DHT22;19030;49.478;8.986;2023-09-19T09:21:25;20.20;99.90
32612;DHT22;19030;49.478;8.986;2023-09-19T09:23:29;20.30;99.90
32612;DHT22;19030;49.478;8.986;2023-09-19T09:25:52;20.60;99.90
32612;DHT22;19030;49.478;8.986;2023-09-19T09:28:03;20.80;99.90
32612;DHT22;19030;49.478;8.986;2023-09-19T09:30:03;20.90;99.90
32612;DHT22;19030;49.478;8.986;2023-09-19T09:32:17;20.90;99.90
32612;DHT22;19030;49.478;8.986;2023-09-19T09:34:20;21.50;99.90
32612;DHT22;19030;49.478;8.986;2023-09-19T09:36:41;22.10;99.30
32612;DHT22;19030;49.478;8.986;2023-09-19T09:38:44;22.50;98.30
32612;DHT22;19030;49.478;8.986;2023-09-19T09:40:49;23.10;95.90
32612;DHT22;19030;49.478;8.986;2023-09-19T09:42:59;23.00;95.00
32612;DHT22;19030;49.478;8.986;2023-09-19T09:45:23;22.60;95.40
32612;DHT22;19030;49.478;8.986;2023-09-19T09:47:45;22.00;96.40
32612;DHT22;19030;49.478;8.986;2023-09-19T09:49:56;21.30;97.20
32612;DHT22;19030;49.478;8.986;2023-09-19T09:52:07;21.20;98.00
32612;DHT22;19030;49.478;8.986;2023-09-19T09:54:17;21.50;97.70
32612;DHT22;19030;49.478;8.986;2023-09-19T09:56:19;22.40;96.40
32612;DHT22;19030;49.478;8.986;2023-09-19T09:58:20;23.30;94.30
32612;DHT22;19030;49.478;8.986;2023-09-19T10:00:24;23.40;93.20
32612;DHT22;19030;49.478;8.986;2023-09-19T10:02:35;23.40;93.40
32612;DHT22;19030;49.478;8.986;2023-09-19T10:04:40;23.40;92.60
32612;DHT22;19030;49.478;8.986;2023-09-19T10:06:52;23.30;92.80
32612;DHT22;19030;49.478;8.986;2023-09-19T10:09:04;23.50;91.60
32612;DHT22;19030;49.478;8.986;2023-09-19T10:11:16;23.40;91.60
32612;DHT22;19030;49.478;8.986;2023-09-19T10:13:16;23.20;91.00
32612;DHT22;19030;49.478;8.986;2023-09-19T10:15:22;23.70;90.70
32612;DHT22;19030;49.478;8.986;2023-09-19T10:17:29;24.30;88.70
32612;DHT22;19030;49.478;8.986;2023-09-19T10:21:54;24.20;86.80
32612;DHT22;19030;49.478;8.986;2023-09-19T10:23:58;24.20;85.30
32612;DHT22;19030;49.478;8.986;2023-09-19T10:26:01;24.10;83.60
32612;DHT22;19030;49.478;8.986;2023-09-19T10:28:02;24.30;82.50
32612;DHT22;19030;49.478;8.986;2023-09-19T10:30:07;25.10;80.40
32612;DHT22;19030;49.478;8.986;2023-09-19T10:32:09;26.80;74.90
32612;DHT22;19030;49.478;8.986;2023-09-19T10:34:11;28.30;66.60
32612;DHT22;19030;49.478;8.986;2023-09-19T10:36:12;27.90;65.50
32612;DHT22;19030;49.478;8.986;2023-09-19T10:38:15;27.70;62.00
32612;DHT22;19030;49.478;8.986;2023-09-19T10:40:19;27.30;62.40
32612;DHT22;19030;49.478;8.986;2023-09-19T10:42:23;26.60;62.60
32612;DHT22;19030;49.478;8.986;2023-09-19T10:44:32;25.70;66.20
32612;DHT22;19030;49.478;8.986;2023-09-19T10:46:33;24.80;66.40
32612;DHT22;19030;49.478;8.986;2023-09-19T10:48:34;25.10;68.10
32612;DHT22;19030;49.478;8.986;2023-09-19T10:50:50;25.10;67.40
32612;DHT22;19030;49.478;8.986;2023-09-19T10:52:53;24.90;67.30
32612;DHT22;19030;49.478;8.986;2023-09-19T10:54:59;25.30;66.50
32612;DHT22;19030;49.478;8.986;2023-09-19T10:57:01;25.70;66.00
32612;DHT22;19030;49.478;8.986;2023-09-19T11:01:08;25.80;65.10
32612;DHT22;19030;49.478;8.986;2023-09-19T11:03:19;26.00;65.70
32612;DHT22;19030;49.478;8.986;2023-09-19T11:05:20;27.00;68.20
32612;DHT22;19030;49.478;8.986;2023-09-19T11:07:21;27.40;60.70
32612;DHT22;19030;49.478;8.986;2023-09-19T11:09:22;27.10;59.70
32612;DHT22;19030;49.478;8.986;2023-09-19T11:11:42;26.30;60.00
32612;DHT22;19030;49.478;8.986;2023-09-19T11:13:43;25.70;63.30
32612;DHT22;19030;49.478;8.986;2023-09-19T11:18:00;25.50;62.80
32612;DHT22;19030;49.478;8.986;2023-09-19T11:22:13;25.50;63.90
32612;DHT22;19030;49.478;8.986;2023-09-19T11:26:43;25.30;63.20
32612;DHT22;19030;49.478;8.986;2023-09-19T11:28:47;24.70;64.40
32612;DHT22;19030;49.478;8.986;2023-09-19T11:30:50;24.30;66.80
32612;DHT22;19030;49.478;8.986;2023-09-19T11:33:22;24.40;66.70
32612;DHT22;19030;49.478;8.986;2023-09-19T11:36:09;24.70;65.90
32612;DHT22;19030;49.478;8.986;2023-09-19T11:38:12;25.30;64.00
32612;DHT22;19030;49.478;8.986;2023-09-19T11:40:15;25.40;63.60
32612;DHT22;19030;49.478;8.986;2023-09-19T11:42:44;25.40;62.90
32612;DHT22;19030;49.478;8.986;2023-09-19T11:44:45;24.90;63.30
32612;DHT22;19030;49.478;8.986;2023-09-19T11:46:53;24.50;63.70
32612;DHT22;19030;49.478;8.986;2023-09-19T11:48:54;24.10;64.40
32612;DHT22;19030;49.478;8.986;2023-09-19T11:50:55;23.50;66.80
32612;DHT22;19030;49.478;8.986;2023-09-19T11:52:57;23.30;68.60
32612;DHT22;19030;49.478;8.986;2023-09-19T11:55:00;23.40;70.00
32612;DHT22;19030;49.478;8.986;2023-09-19T11:57:02;23.50;74.60
32612;DHT22;19030;49.478;8.986;2023-09-19T11:59:03;23.70;73.30
32612;DHT22;19030;49.478;8.986;2023-09-19T12:01:05;24.00;71.80
32612;DHT22;19030;49.478;8.986;2023-09-19T12:03:10;24.00;66.90
32612;DHT22;19030;49.478;8.986;2023-09-19T12:05:11;23.90;69.20
32612;DHT22;19030;49.478;8.986;2023-09-19T12:07:14;24.10;68.70
32612;DHT22;19030;49.478;8.986;2023-09-19T12:09:19;24.30;66.80
32612;DHT22;19030;49.478;8.986;2023-09-19T12:11:22;24.50;66.30
32612;DHT22;19030;49.478;8.986;2023-09-19T12:13:23;24.90;65.40
32612;DHT22;19030;49.478;8.986;2023-09-19T12:15:28;24.90;62.00
32612;DHT22;19030;49.478;8.986;2023-09-19T12:17:40;25.00;63.20
32612;DHT22;19030;49.478;8.986;2023-09-19T12:19:56;24.90;63.20
32612;DHT22;19030;49.478;8.986;2023-09-19T12:21:59;24.70;62.70
32612;DHT22;19030;49.478;8.986;2023-09-19T12:26:06;24.70;63.40
32612;DHT22;19030;49.478;8.986;2023-09-19T12:28:13;24.70;64.10
32612;DHT22;19030;49.478;8.986;2023-09-19T12:30:15;25.10;63.90
32612;DHT22;19030;49.478;8.986;2023-09-19T12:32:17;25.40;63.40
32612;DHT22;19030;49.478;8.986;2023-09-19T12:34:22;25.70;61.00
32612;DHT22;19030;49.478;8.986;2023-09-19T12:36:23;25.90;60.20
32612;DHT22;19030;49.478;8.986;2023-09-19T12:38:26;26.00;60.60
32612;DHT22;19030;49.478;8.986;2023-09-19T12:40:33;25.80;59.00
32612;DHT22;19030;49.478;8.986;2023-09-19T12:42:36;26.00;59.40
32612;DHT22;19030;49.478;8.986;2023-09-19T12:44:37;26.10;58.20
32612;DHT22;19030;49.478;8.986;2023-09-19T12:46:41;26.30;58.30
32612;DHT22;19030;49.478;8.986;2023-09-19T12:48:42;26.10;58.40
32612;DHT22;19030;49.478;8.986;2023-09-19T12:51:07;25.70;58.30
32612;DHT22;19030;49.478;8.986;2023-09-19T12:53:25;25.50;58.80
32612;DHT22;19030;49.478;8.986;2023-09-19T12:55:27;24.90;59.80
32612;DHT22;19030;49.478;8.986;2023-09-19T12:57:28;24.30;62.00
32612;DHT22;19030;49.478;8.986;2023-09-19T12:59:32;24.10;62.30
32612;DHT22;19030;49.478;8.986;2023-09-19T13:01:34;23.80;63.80
32612;DHT22;19030;49.478;8.986;2023-09-19T13:03:40;23.80;64.00
32612;DHT22;19030;49.478;8.986;2023-09-19T13:05:51;23.60;64.70
32612;DHT22;19030;49.478;8.986;2023-09-19T13:07:52;23.60;65.00
32612;DHT22;19030;49.478;8.986;2023-09-19T13:10:04;23.60;64.50
32612;DHT22;19030;49.478;8.986;2023-09-19T13:12:34;24.00;65.20
32612;DHT22;19030;49.478;8.986;2023-09-19T13:14:29;24.80;63.80
32612;DHT22;19030;49.478;8.986;2023-09-19T13:19:35;26.90;57.80
32612;DHT22;19030;49.478;8.986;2023-09-19T13:21:35;27.10;56.10
32612;DHT22;19030;49.478;8.986;2023-09-19T13:23:54;27.20;56.10
32612;DHT22;19030;49.478;8.986;2023-09-19T13:25:59;26.80;55.30
32612;DHT22;19030;49.478;8.986;2023-09-19T13:27:59;26.40;55.90
32612;DHT22;19030;49.478;8.986;2023-09-19T13:30:05;26.20;56.80
32612;DHT22;19030;49.478;8.986;2023-09-19T13:32:06;25.80;56.50
32612;DHT22;19030;49.478;8.986;2023-09-19T13:34:06;25.70;57.30
32612;DHT22;19030;49.478;8.986;2023-09-19T13:36:07;25.50;58.00